sensor_id;sensor_type;location;lat;lon;timestamp;P1;durP1;ratioP1;P2;durP2;ratioP2
10717;SDS011;13513;42.700;23.124;2023-03-19T00:01:39;6.67;;;4.30;;
10717;SDS011;13513;42.700;23.124;2023-03-19T00:04:10;5.80;;;4.00;;
10717;SDS011;13513;42.700;23.124;2023-03-19T00:06:41;5.97;;;3.90;;
10717;SDS011;13513;42.700;23.124;2023-03-19T00:09:11;6.53;;;4.20;;
10717;SDS011;13513;42.700;23.124;2023-03-19T00:11:43;5.57;;;4.63;;
10717;SDS011;13513;42.700;23.124;2023-03-19T00:14:12;8.80;;;5.20;;
10717;SDS011;13513;42.700;23.124;2023-03-19T00:16:42;6.90;;;4.63;;
10717;SDS011;13513;42.700;23.124;2023-03-19T00:19:13;6.00;;;4.20;;
10717;SDS011;13513;42.700;23.124;2023-03-19T00:21:44;8.47;;;3.87;;
10717;SDS011;13513;42.700;23.124;2023-03-19T00:24:15;5.23;;;3.87;;
10717;SDS011;13513;42.700;23.124;2023-03-19T00:26:49;5.50;;;4.07;;
10717;SDS011;13513;42.700;23.124;2023-03-19T00:29:19;5.87;;;3.80;;
10717;SDS011;13513;42.700;23.124;2023-03-19T00:31:51;5.80;;;3.77;;
10717;SDS011;13513;42.700;23.124;2023-03-19T00:34:22;5.97;;;4.27;;
10717;SDS011;13513;42.700;23.124;2023-03-19T00:36:53;6.00;;;3.93;;
10717;SDS011;13513;42.700;23.124;2023-03-19T00:39:23;5.23;;;3.43;;
10717;SDS011;13513;42.700;23.124;2023-03-19T00:41:54;6.63;;;3.87;;
10717;SDS011;13513;42.700;23.124;2023-03-19T00:44:25;4.93;;;3.63;;
10717;SDS011;13513;42.700;23.124;2023-03-19T00:46:56;6.47;;;3.97;;
10717;SDS011;13513;42.700;23.124;2023-03-19T00:49:26;6.57;;;3.57;;
10717;SDS011;13513;42.700;23.124;2023-03-19T00:51:57;4.33;;;3.23;;
10717;SDS011;13513;42.700;23.124;2023-03-19T00:54:29;8.50;;;4.23;;
10717;SDS011;13513;42.700;23.124;2023-03-19T00:56:59;8.20;;;4.30;;
10717;SDS011;13513;42.700;23.124;2023-03-19T00:59:29;4.17;;;3.13;;
10717;SDS011;13513;42.700;23.124;2023-03-19T01:02:00;6.60;;;3.67;;
10717;SDS011;13513;42.700;23.124;2023-03-19T01:04:32;6.73;;;3.47;;
10717;SDS011;13513;42.700;23.124;2023-03-19T01:07:03;6.20;;;3.77;;
10717;SDS011;13513;42.700;23.124;2023-03-19T01:09:34;4.83;;;3.27;;
10717;SDS011;13513;42.700;23.124;2023-03-19T01:12:05;5.17;;;3.10;;
10717;SDS011;13513;42.700;23.124;2023-03-19T01:14:36;5.77;;;3.37;;
10717;SDS011;13513;42.700;23.124;2023-03-19T01:17:07;4.60;;;3.00;;
10717;SDS011;13513;42.700;23.124;2023-03-19T01:19:38;8.13;;;3.60;;
10717;SDS011;13513;42.700;23.124;2023-03-19T01:22:09;7.47;;;3.60;;
10717;SDS011;13513;42.700;23.124;2023-03-19T01:24:40;5.07;;;3.50;;
10717;SDS011;13513;42.700;23.124;2023-03-19T01:27:11;7.37;;;3.87;;
10717;SDS011;13513;42.700;23.124;2023-03-19T01:29:42;7.63;;;3.77;;
10717;SDS011;13513;42.700;23.124;2023-03-19T01:32:13;8.63;;;4.20;;
10717;SDS011;13513;42.700;23.124;2023-03-19T01:34:44;10.50;;;4.70;;
10717;SDS011;13513;42.700;23.124;2023-03-19T01:37:14;6.27;;;3.63;;
10717;SDS011;13513;42.700;23.124;2023-03-19T01:39:45;6.57;;;3.30;;
10717;SDS011;13513;42.700;23.124;2023-03-19T01:42:16;3.97;;;3.23;;
10717;SDS011;13513;42.700;23.124;2023-03-19T01:44:47;11.23;;;4.90;;
10717;SDS011;13513;42.700;23.124;2023-03-19T01:47:29;8.37;;;3.97;;
10717;SDS011;13513;42.700;23.124;2023-03-19T01:49:59;7.33;;;4.00;;
10717;SDS011;13513;42.700;23.124;2023-03-19T01:52:31;11.03;;;4.47;;
10717;SDS011;13513;42.700;23.124;2023-03-19T01:55:03;6.73;;;4.30;;
10717;SDS011;13513;42.700;23.124;2023-03-19T01:57:34;8.27;;;4.43;;
10717;SDS011;13513;42.700;23.124;2023-03-19T02:00:06;8.23;;;4.87;;
10717;SDS011;13513;42.700;23.124;2023-03-19T02:02:38;6.93;;;4.43;;
10717;SDS011;13513;42.700;23.124;2023-03-19T02:05:12;11.47;;;4.20;;
10717;SDS011;13513;42.700;23.124;2023-03-19T02:07:45;7.77;;;4.50;;
10717;SDS011;13513;42.700;23.124;2023-03-19T02:10:16;8.97;;;3.60;;
10717;SDS011;13513;42.700;23.124;2023-03-19T02:12:48;7.43;;;3.13;;
10717;SDS011;13513;42.700;23.124;2023-03-19T02:15:18;6.27;;;3.80;;
10717;SDS011;13513;42.700;23.124;2023-03-19T02:17:55;18.87;;;8.07;;
10717;SDS011;13513;42.700;23.124;2023-03-19T02:26:02;14.93;;;6.93;;
10717;SDS011;13513;42.700;23.124;2023-03-19T02:28:37;6.47;;;4.20;;
10717;SDS011;13513;42.700;23.124;2023-03-19T02:31:08;10.00;;;5.33;;
10717;SDS011;13513;42.700;23.124;2023-03-19T02:33:40;7.87;;;4.50;;
10717;SDS011;13513;42.700;23.124;2023-03-19T02:36:14;23.03;;;9.27;;
10717;SDS011;13513;42.700;23.124;2023-03-19T02:38:45;76.83;;;21.00;;
10717;SDS011;13513;42.700;23.124;2023-03-19T02:41:18;54.10;;;16.73;;
10717;SDS011;13513;42.700;23.124;2023-03-19T02:43:48;25.77;;;8.93;;
10717;SDS011;13513;42.700;23.124;2023-03-19T02:46:20;10.77;;;5.40;;
10717;SDS011;13513;42.700;23.124;2023-03-19T02:48:51;8.63;;;4.70;;
10717;SDS011;13513;42.700;23.124;2023-03-19T02:51:21;11.80;;;7.67;;
10717;SDS011;13513;42.700;23.124;2023-03-19T02:53:52;35.53;;;22.80;;
10717;SDS011;13513;42.700;23.124;2023-03-19T02:56:23;11.97;;;8.07;;
10717;SDS011;13513;42.700;23.124;2023-03-19T02:58:54;10.10;;;5.97;;
10717;SDS011;13513;42.700;23.124;2023-03-19T03:01:25;5.80;;;4.50;;
10717;SDS011;13513;42.700;23.124;2023-03-19T03:03:56;5.00;;;3.93;;
10717;SDS011;13513;42.700;23.124;2023-03-19T03:06:26;8.83;;;5.47;;
10717;SDS011;13513;42.700;23.124;2023-03-19T03:08:56;12.10;;;6.43;;
10717;SDS011;13513;42.700;23.124;2023-03-19T03:11:27;8.73;;;5.00;;
10717;SDS011;13513;42.700;23.124;2023-03-19T03:13:59;8.30;;;5.13;;
10717;SDS011;13513;42.700;23.124;2023-03-19T03:16:30;8.07;;;4.10;;
10717;SDS011;13513;42.700;23.124;2023-03-19T03:19:00;7.87;;;4.43;;
10717;SDS011;13513;42.700;23.124;2023-03-19T03:21:32;7.47;;;4.80;;
10717;SDS011;13513;42.700;23.124;2023-03-19T03:24:04;8.40;;;4.37;;
10717;SDS011;13513;42.700;23.124;2023-03-19T03:26:35;8.17;;;4.40;;
10717;SDS011;13513;42.700;23.124;2023-03-19T03:29:06;7.17;;;3.90;;
10717;SDS011;13513;42.700;23.124;2023-03-19T03:31:37;8.77;;;3.80;;
10717;SDS011;13513;42.700;23.124;2023-03-19T03:34:08;6.07;;;4.00;;
10717;SDS011;13513;42.700;23.124;2023-03-19T03:36:38;6.47;;;4.40;;
10717;SDS011;13513;42.700;23.124;2023-03-19T03:39:09;8.27;;;4.50;;
10717;SDS011;13513;42.700;23.124;2023-03-19T03:41:41;8.13;;;4.03;;
10717;SDS011;13513;42.700;23.124;2023-03-19T03:44:14;6.10;;;3.70;;
10717;SDS011;13513;42.700;23.124;2023-03-19T03:46:44;7.10;;;4.00;;
10717;SDS011;13513;42.700;23.124;2023-03-19T03:49:15;6.50;;;3.67;;
10717;SDS011;13513;42.700;23.124;2023-03-19T03:51:46;8.63;;;3.23;;
10717;SDS011;13513;42.700;23.124;2023-03-19T03:54:17;5.70;;;3.67;;
10717;SDS011;13513;42.700;23.124;2023-03-19T03:56:47;5.23;;;3.37;;
10717;SDS011;13513;42.700;23.124;2023-03-19T03:59:18;5.73;;;3.40;;
10717;SDS011;13513;42.700;23.124;2023-03-19T04:01:49;5.27;;;3.27;;
10717;SDS011;13513;42.700;23.124;2023-03-19T04:04:20;13.83;;;5.77;;
10717;SDS011;13513;42.700;23.124;2023-03-19T04:06:51;16.10;;;6.27;;
10717;SDS011;13513;42.700;23.124;2023-03-19T04:09:22;4.73;;;3.60;;
10717;SDS011;13513;42.700;23.124;2023-03-19T04:11:53;8.20;;;3.87;;
10717;SDS011;13513;42.700;23.124;2023-03-19T04:14:24;4.40;;;3.13;;
10717;SDS011;13513;42.700;23.124;2023-03-19T04:16:55;4.90;;;3.17;;
10717;SDS011;13513;42.700;23.124;2023-03-19T04:19:27;4.70;;;3.50;;
10717;SDS011;13513;42.700;23.124;2023-03-19T04:21:57;4.83;;;3.13;;
10717;SDS011;13513;42.700;23.124;2023-03-19T04:24:28;7.03;;;3.20;;
10717;SDS011;13513;42.700;23.124;2023-03-19T04:27:00;8.17;;;3.03;;
10717;SDS011;13513;42.700;23.124;2023-03-19T04:29:32;5.70;;;3.47;;
10717;SDS011;13513;42.700;23.124;2023-03-19T04:32:03;5.60;;;3.23;;
10717;SDS011;13513;42.700;23.124;2023-03-19T04:34:34;6.20;;;3.70;;
10717;SDS011;13513;42.700;23.124;2023-03-19T04:37:04;5.20;;;3.23;;
10717;SDS011;13513;42.700;23.124;2023-03-19T04:39:35;6.40;;;3.60;;
10717;SDS011;13513;42.700;23.124;2023-03-19T04:42:06;6.50;;;3.33;;
10717;SDS011;13513;42.700;23.124;2023-03-19T04:44:37;4.77;;;3.53;;
10717;SDS011;13513;42.700;23.124;2023-03-19T04:47:08;6.87;;;3.67;;
10717;SDS011;13513;42.700;23.124;2023-03-19T04:49:39;5.37;;;3.57;;
10717;SDS011;13513;42.700;23.124;2023-03-19T04:52:10;4.53;;;3.13;;
10717;SDS011;13513;42.700;23.124;2023-03-19T04:54:40;5.60;;;3.17;;
10717;SDS011;13513;42.700;23.124;2023-03-19T04:57:11;5.93;;;3.20;;
10717;SDS011;13513;42.700;23.124;2023-03-19T04:59:42;11.43;;;5.13;;
10717;SDS011;13513;42.700;23.124;2023-03-19T05:02:13;8.40;;;4.50;;
10717;SDS011;13513;42.700;23.124;2023-03-19T05:04:44;8.23;;;4.70;;
10717;SDS011;13513;42.700;23.124;2023-03-19T05:07:15;10.07;;;4.97;;
10717;SDS011;13513;42.700;23.124;2023-03-19T05:09:45;10.97;;;5.50;;
10717;SDS011;13513;42.700;23.124;2023-03-19T05:12:16;17.73;;;8.37;;
10717;SDS011;13513;42.700;23.124;2023-03-19T05:14:47;32.20;;;11.27;;
10717;SDS011;13513;42.700;23.124;2023-03-19T05:17:18;30.57;;;11.70;;
10717;SDS011;13513;42.700;23.124;2023-03-19T05:19:49;14.90;;;7.90;;
10717;SDS011;13513;42.700;23.124;2023-03-19T05:22:20;11.00;;;6.90;;
10717;SDS011;13513;42.700;23.124;2023-03-19T05:24:51;8.40;;;5.13;;
10717;SDS011;13513;42.700;23.124;2023-03-19T05:27:22;12.23;;;5.80;;
10717;SDS011;13513;42.700;23.124;2023-03-19T05:29:58;8.60;;;5.27;;
10717;SDS011;13513;42.700;23.124;2023-03-19T05:32:29;8.33;;;4.70;;
10717;SDS011;13513;42.700;23.124;2023-03-19T05:34:59;10.53;;;5.50;;
10717;SDS011;13513;42.700;23.124;2023-03-19T05:37:30;7.63;;;5.30;;
10717;SDS011;13513;42.700;23.124;2023-03-19T05:40:01;16.70;;;7.00;;
10717;SDS011;13513;42.700;23.124;2023-03-19T05:42:31;15.30;;;7.47;;
10717;SDS011;13513;42.700;23.124;2023-03-19T05:45:03;11.17;;;6.93;;
10717;SDS011;13513;42.700;23.124;2023-03-19T05:47:33;11.80;;;7.07;;
10717;SDS011;13513;42.700;23.124;2023-03-19T05:50:03;11.37;;;7.17;;
10717;SDS011;13513;42.700;23.124;2023-03-19T05:52:36;9.97;;;6.93;;
10717;SDS011;13513;42.700;23.124;2023-03-19T05:55:07;9.70;;;6.60;;
10717;SDS011;13513;42.700;23.124;2023-03-19T05:57:37;11.37;;;7.00;;
10717;SDS011;13513;42.700;23.124;2023-03-19T06:00:08;8.63;;;6.00;;
10717;SDS011;13513;42.700;23.124;2023-03-19T06:02:39;11.80;;;6.00;;
10717;SDS011;13513;42.700;23.124;2023-03-19T06:05:10;7.97;;;5.50;;
10717;SDS011;13513;42.700;23.124;2023-03-19T06:07:44;10.70;;;5.20;;
10717;SDS011;13513;42.700;23.124;2023-03-19T06:10:15;10.23;;;5.47;;
10717;SDS011;13513;42.700;23.124;2023-03-19T06:12:46;12.33;;;5.80;;
10717;SDS011;13513;42.700;23.124;2023-03-19T06:15:17;13.83;;;6.10;;
10717;SDS011;13513;42.700;23.124;2023-03-19T06:17:49;10.97;;;5.47;;
10717;SDS011;13513;42.700;23.124;2023-03-19T06:20:20;9.58;;;5.67;;
10717;SDS011;13513;42.700;23.124;2023-03-19T06:22:51;13.18;;;5.80;;
10717;SDS011;13513;42.700;23.124;2023-03-19T06:25:21;11.95;;;6.12;;
10717;SDS011;13513;42.700;23.124;2023-03-19T06:27:52;11.88;;;6.12;;
10717;SDS011;13513;42.700;23.124;2023-03-19T06:30:22;15.43;;;5.90;;
10717;SDS011;13513;42.700;23.124;2023-03-19T06:32:54;12.85;;;6.20;;
10717;SDS011;13513;42.700;23.124;2023-03-19T06:35:24;10.98;;;5.30;;
10717;SDS011;13513;42.700;23.124;2023-03-19T06:37:55;10.32;;;5.30;;
10717;SDS011;13513;42.700;23.124;2023-03-19T06:40:26;14.95;;;5.90;;
10717;SDS011;13513;42.700;23.124;2023-03-19T06:42:58;8.68;;;6.08;;
10717;SDS011;13513;42.700;23.124;2023-03-19T06:45:29;11.33;;;6.78;;
10717;SDS011;13513;42.700;23.124;2023-03-19T06:48:00;10.08;;;5.80;;
10717;SDS011;13513;42.700;23.124;2023-03-19T06:50:31;8.93;;;5.55;;
10717;SDS011;13513;42.700;23.124;2023-03-19T06:53:02;9.68;;;5.78;;
10717;SDS011;13513;42.700;23.124;2023-03-19T06:55:33;9.73;;;6.10;;
10717;SDS011;13513;42.700;23.124;2023-03-19T06:58:04;9.83;;;5.62;;
10717;SDS011;13513;42.700;23.124;2023-03-19T07:00:35;10.15;;;6.72;;
10717;SDS011;13513;42.700;23.124;2023-03-19T07:03:04;13.32;;;7.12;;
10717;SDS011;13513;42.700;23.124;2023-03-19T07:05:36;9.63;;;6.80;;
10717;SDS011;13513;42.700;23.124;2023-03-19T07:08:06;10.32;;;6.70;;
10717;SDS011;13513;42.700;23.124;2023-03-19T07:10:37;12.18;;;6.60;;
10717;SDS011;13513;42.700;23.124;2023-03-19T07:13:07;17.57;;;6.75;;
10717;SDS011;13513;42.700;23.124;2023-03-19T07:15:38;9.08;;;6.62;;
10717;SDS011;13513;42.700;23.124;2023-03-19T07:18:09;10.55;;;6.70;;
10717;SDS011;13513;42.700;23.124;2023-03-19T07:20:42;10.72;;;6.58;;
10717;SDS011;13513;42.700;23.124;2023-03-19T07:23:13;11.20;;;7.00;;
10717;SDS011;13513;42.700;23.124;2023-03-19T07:25:43;9.20;;;6.17;;
10717;SDS011;13513;42.700;23.124;2023-03-19T07:28:14;9.33;;;5.87;;
10717;SDS011;13513;42.700;23.124;2023-03-19T07:30:44;9.95;;;6.00;;
10717;SDS011;13513;42.700;23.124;2023-03-19T07:33:15;11.90;;;6.57;;
10717;SDS011;13513;42.700;23.124;2023-03-19T07:35:46;11.50;;;7.43;;
10717;SDS011;13513;42.700;23.124;2023-03-19T07:38:15;10.40;;;7.07;;
10717;SDS011;13513;42.700;23.124;2023-03-19T07:40:49;9.93;;;7.07;;
10717;SDS011;13513;42.700;23.124;2023-03-19T07:43:21;8.87;;;6.30;;
10717;SDS011;13513;42.700;23.124;2023-03-19T07:45:52;12.53;;;6.83;;
10717;SDS011;13513;42.700;23.124;2023-03-19T07:48:23;13.23;;;8.20;;
10717;SDS011;13513;42.700;23.124;2023-03-19T07:50:56;13.18;;;8.05;;
10717;SDS011;13513;42.700;23.124;2023-03-19T07:53:27;10.38;;;8.25;;
10717;SDS011;13513;42.700;23.124;2023-03-19T07:55:58;20.35;;;12.68;;
10717;SDS011;13513;42.700;23.124;2023-03-19T07:58:28;19.80;;;10.50;;
10717;SDS011;13513;42.700;23.124;2023-03-19T08:00:59;17.50;;;10.90;;
10717;SDS011;13513;42.700;23.124;2023-03-19T08:03:30;17.70;;;10.80;;
10717;SDS011;13513;42.700;23.124;2023-03-19T08:06:01;15.23;;;10.53;;
10717;SDS011;13513;42.700;23.124;2023-03-19T08:08:32;14.28;;;10.10;;
10717;SDS011;13513;42.700;23.124;2023-03-19T08:11:03;22.00;;;9.93;;
10717;SDS011;13513;42.700;23.124;2023-03-19T08:13:35;15.88;;;10.05;;
10717;SDS011;13513;42.700;23.124;2023-03-19T08:16:06;11.80;;;8.93;;
10717;SDS011;13513;42.700;23.124;2023-03-19T08:18:37;11.60;;;8.30;;
10717;SDS011;13513;42.700;23.124;2023-03-19T08:21:10;13.60;;;9.40;;
10717;SDS011;13513;42.700;23.124;2023-03-19T08:23:41;10.80;;;8.93;;
10717;SDS011;13513;42.700;23.124;2023-03-19T08:26:11;11.18;;;8.75;;
10717;SDS011;13513;42.700;23.124;2023-03-19T08:28:41;12.18;;;8.43;;
10717;SDS011;13513;42.700;23.124;2023-03-19T08:31:12;15.95;;;9.78;;
10717;SDS011;13513;42.700;23.124;2023-03-19T08:33:43;12.82;;;8.65;;
10717;SDS011;13513;42.700;23.124;2023-03-19T08:36:14;13.20;;;8.38;;
10717;SDS011;13513;42.700;23.124;2023-03-19T08:38:44;11.33;;;8.45;;
10717;SDS011;13513;42.700;23.124;2023-03-19T08:41:15;11.00;;;7.83;;
10717;SDS011;13513;42.700;23.124;2023-03-19T08:43:46;12.47;;;8.45;;
10717;SDS011;13513;42.700;23.124;2023-03-19T08:46:18;11.48;;;7.83;;
10717;SDS011;13513;42.700;23.124;2023-03-19T08:48:48;14.28;;;9.15;;
10717;SDS011;13513;42.700;23.124;2023-03-19T08:51:18;18.77;;;11.30;;
10717;SDS011;13513;42.700;23.124;2023-03-19T08:53:49;9.68;;;7.87;;
10717;SDS011;13513;42.700;23.124;2023-03-19T08:56:20;12.73;;;8.08;;
10717;SDS011;13513;42.700;23.124;2023-03-19T08:58:50;12.60;;;8.03;;
10717;SDS011;13513;42.700;23.124;2023-03-19T09:01:24;9.83;;;7.72;;
10717;SDS011;13513;42.700;23.124;2023-03-19T09:03:55;11.43;;;8.13;;
10717;SDS011;13513;42.700;23.124;2023-03-19T09:06:26;10.75;;;7.97;;
10717;SDS011;13513;42.700;23.124;2023-03-19T09:08:55;10.80;;;7.85;;
10717;SDS011;13513;42.700;23.124;2023-03-19T09:11:26;12.10;;;8.35;;
10717;SDS011;13513;42.700;23.124;2023-03-19T09:13:57;13.90;;;7.45;;
10717;SDS011;13513;42.700;23.124;2023-03-19T09:16:27;11.83;;;7.80;;
10717;SDS011;13513;42.700;23.124;2023-03-19T09:18:58;12.35;;;7.90;;
10717;SDS011;13513;42.700;23.124;2023-03-19T09:21:29;13.28;;;7.58;;
10717;SDS011;13513;42.700;23.124;2023-03-19T09:24:00;11.50;;;7.67;;
10717;SDS011;13513;42.700;23.124;2023-03-19T09:26:31;11.43;;;7.33;;
10717;SDS011;13513;42.700;23.124;2023-03-19T09:29:01;12.75;;;7.92;;
10717;SDS011;13513;42.700;23.124;2023-03-19T09:31:32;9.35;;;7.58;;
10717;SDS011;13513;42.700;23.124;2023-03-19T09:34:03;11.33;;;7.33;;
10717;SDS011;13513;42.700;23.124;2023-03-19T09:36:35;13.20;;;8.00;;
10717;SDS011;13513;42.700;23.124;2023-03-19T09:39:06;8.63;;;6.78;;
10717;SDS011;13513;42.700;23.124;2023-03-19T09:41:44;11.60;;;6.72;;
10717;SDS011;13513;42.700;23.124;2023-03-19T09:44:24;9.98;;;6.37;;
10717;SDS011;13513;42.700;23.124;2023-03-19T09:46:52;10.82;;;6.45;;
10717;SDS011;13513;42.700;23.124;2023-03-19T09:49:27;9.50;;;6.28;;
10717;SDS011;13513;42.700;23.124;2023-03-19T09:52:48;10.70;;;5.95;;
10717;SDS011;13513;42.700;23.124;2023-03-19T09:54:46;8.63;;;5.80;;
10717;SDS011;13513;42.700;23.124;2023-03-19T09:57:18;7.95;;;5.65;;
10717;SDS011;13513;42.700;23.124;2023-03-19T09:59:49;7.58;;;5.55;;
10717;SDS011;13513;42.700;23.124;2023-03-19T10:05:10;9.25;;;6.05;;
10717;SDS011;13513;42.700;23.124;2023-03-19T10:10:43;8.80;;;5.47;;
10717;SDS011;13513;42.700;23.124;2023-03-19T10:13:34;11.65;;;4.97;;
10717;SDS011;13513;42.700;23.124;2023-03-19T10:16:09;7.53;;;5.65;;
10717;SDS011;13513;42.700;23.124;2023-03-19T10:18:38;6.78;;;5.30;;
10717;SDS011;13513;42.700;23.124;2023-03-19T10:21:11;7.00;;;5.00;;
10717;SDS011;13513;42.700;23.124;2023-03-19T10:23:43;11.28;;;6.10;;
10717;SDS011;13513;42.700;23.124;2023-03-19T10:26:15;7.35;;;5.00;;
10717;SDS011;13513;42.700;23.124;2023-03-19T10:28:56;7.42;;;5.62;;
10717;SDS011;13513;42.700;23.124;2023-03-19T10:31:46;10.58;;;5.87;;
10717;SDS011;13513;42.700;23.124;2023-03-19T10:34:30;8.48;;;5.20;;
10717;SDS011;13513;42.700;23.124;2023-03-19T10:37:11;9.50;;;5.03;;
10717;SDS011;13513;42.700;23.124;2023-03-19T10:39:43;9.78;;;5.22;;
10717;SDS011;13513;42.700;23.124;2023-03-19T10:47:47;6.12;;;4.62;;
10717;SDS011;13513;42.700;23.124;2023-03-19T10:50:31;7.95;;;5.12;;
10717;SDS011;13513;42.700;23.124;2023-03-19T10:53:06;8.50;;;5.65;;
10717;SDS011;13513;42.700;23.124;2023-03-19T10:55:45;8.18;;;4.85;;
10717;SDS011;13513;42.700;23.124;2023-03-19T10:58:26;7.87;;;5.30;;
10717;SDS011;13513;42.700;23.124;2023-03-19T11:01:08;9.03;;;4.85;;
10717;SDS011;13513;42.700;23.124;2023-03-19T11:03:39;8.45;;;5.15;;
10717;SDS011;13513;42.700;23.124;2023-03-19T11:08:57;8.68;;;5.67;;
10717;SDS011;13513;42.700;23.124;2023-03-19T11:14:15;6.08;;;4.25;;
10717;SDS011;13513;42.700;23.124;2023-03-19T11:16:55;9.20;;;4.42;;
10717;SDS011;13513;42.700;23.124;2023-03-19T11:19:34;4.50;;;3.58;;
10717;SDS011;13513;42.700;23.124;2023-03-19T11:22:16;5.85;;;4.40;;
10717;SDS011;13513;42.700;23.124;2023-03-19T11:25:06;5.47;;;4.05;;
10717;SDS011;13513;42.700;23.124;2023-03-19T11:27:56;6.90;;;4.37;;
10717;SDS011;13513;42.700;23.124;2023-03-19T11:30:51;7.22;;;4.58;;
10717;SDS011;13513;42.700;23.124;2023-03-19T11:33:37;5.97;;;4.65;;
10717;SDS011;13513;42.700;23.124;2023-03-19T11:35:50;6.50;;;4.15;;
10717;SDS011;13513;42.700;23.124;2023-03-19T11:38:43;7.00;;;4.22;;
10717;SDS011;13513;42.700;23.124;2023-03-19T11:41:17;8.33;;;4.85;;
10717;SDS011;13513;42.700;23.124;2023-03-19T11:44:04;5.65;;;3.92;;
10717;SDS011;13513;42.700;23.124;2023-03-19T11:46:37;8.60;;;4.33;;
10717;SDS011;13513;42.700;23.124;2023-03-19T11:57:46;7.00;;;4.47;;
10717;SDS011;13513;42.700;23.124;2023-03-19T12:00:32;6.05;;;4.92;;
10717;SDS011;13513;42.700;23.124;2023-03-19T12:03:22;8.30;;;4.65;;
10717;SDS011;13513;42.700;23.124;2023-03-19T12:06:23;7.17;;;4.08;;
10717;SDS011;13513;42.700;23.124;2023-03-19T12:09:03;7.72;;;4.10;;
10717;SDS011;13513;42.700;23.124;2023-03-19T12:20:16;6.10;;;4.20;;
10717;SDS011;13513;42.700;23.124;2023-03-19T12:25:35;7.55;;;4.50;;
10717;SDS011;13513;42.700;23.124;2023-03-19T12:28:17;7.55;;;3.92;;
10717;SDS011;13513;42.700;23.124;2023-03-19T12:31:08;5.05;;;3.50;;
10717;SDS011;13513;42.700;23.124;2023-03-19T12:33:42;6.42;;;3.83;;
10717;SDS011;13513;42.700;23.124;2023-03-19T12:36:16;9.93;;;4.17;;
10717;SDS011;13513;42.700;23.124;2023-03-19T12:38:50;6.50;;;3.80;;
10717;SDS011;13513;42.700;23.124;2023-03-19T12:41:22;5.75;;;3.60;;
10717;SDS011;13513;42.700;23.124;2023-03-19T12:44:05;6.67;;;4.20;;
10717;SDS011;13513;42.700;23.124;2023-03-19T12:47:00;5.42;;;3.60;;
10717;SDS011;13513;42.700;23.124;2023-03-19T12:49:46;7.28;;;3.58;;
10717;SDS011;13513;42.700;23.124;2023-03-19T12:52:21;7.00;;;3.70;;
10717;SDS011;13513;42.700;23.124;2023-03-19T12:55:07;6.70;;;3.75;;
10717;SDS011;13513;42.700;23.124;2023-03-19T13:00:33;6.33;;;3.50;;
10717;SDS011;13513;42.700;23.124;2023-03-19T13:03:10;4.85;;;3.37;;
10717;SDS011;13513;42.700;23.124;2023-03-19T13:08:31;6.75;;;3.33;;
10717;SDS011;13513;42.700;23.124;2023-03-19T13:11:03;9.53;;;5.08;;
10717;SDS011;13513;42.700;23.124;2023-03-19T13:16:29;6.75;;;3.20;;
10717;SDS011;13513;42.700;23.124;2023-03-19T13:21:44;8.35;;;4.08;;
10717;SDS011;13513;42.700;23.124;2023-03-19T13:26:55;5.87;;;3.50;;
10717;SDS011;13513;42.700;23.124;2023-03-19T13:29:29;6.75;;;3.65;;
10717;SDS011;13513;42.700;23.124;2023-03-19T13:32:24;3.98;;;2.95;;
10717;SDS011;13513;42.700;23.124;2023-03-19T13:34:36;4.92;;;3.12;;
10717;SDS011;13513;42.700;23.124;2023-03-19T13:37:13;4.72;;;3.20;;
10717;SDS011;13513;42.700;23.124;2023-03-19T13:39:46;7.08;;;3.55;;
10717;SDS011;13513;42.700;23.124;2023-03-19T13:42:22;10.00;;;4.53;;
10717;SDS011;13513;42.700;23.124;2023-03-19T13:45:26;6.45;;;3.10;;
10717;SDS011;13513;42.700;23.124;2023-03-19T13:47:50;4.05;;;3.22;;
10717;SDS011;13513;42.700;23.124;2023-03-19T13:50:23;5.62;;;3.58;;
10717;SDS011;13513;42.700;23.124;2023-03-19T13:53:19;10.20;;;3.60;;
10717;SDS011;13513;42.700;23.124;2023-03-19T13:55:52;5.53;;;4.22;;
10717;SDS011;13513;42.700;23.124;2023-03-19T13:58:25;4.35;;;3.35;;
10717;SDS011;13513;42.700;23.124;2023-03-19T14:04:05;7.60;;;4.00;;
10717;SDS011;13513;42.700;23.124;2023-03-19T14:06:56;5.55;;;3.33;;
10717;SDS011;13513;42.700;23.124;2023-03-19T14:09:34;5.58;;;3.58;;
10717;SDS011;13513;42.700;23.124;2023-03-19T14:14:58;5.75;;;3.30;;
10717;SDS011;13513;42.700;23.124;2023-03-19T14:20:05;6.03;;;3.30;;
10717;SDS011;13513;42.700;23.124;2023-03-19T14:22:39;5.95;;;3.45;;
10717;SDS011;13513;42.700;23.124;2023-03-19T14:27:48;4.60;;;3.15;;
10717;SDS011;13513;42.700;23.124;2023-03-19T14:30:32;4.72;;;3.05;;
10717;SDS011;13513;42.700;23.124;2023-03-19T14:33:06;3.95;;;3.22;;
10717;SDS011;13513;42.700;23.124;2023-03-19T14:35:39;14.85;;;5.95;;
10717;SDS011;13513;42.700;23.124;2023-03-19T14:41:06;6.20;;;3.25;;
10717;SDS011;13513;42.700;23.124;2023-03-19T14:55:00;16.45;;;6.92;;
10717;SDS011;13513;42.700;23.124;2023-03-19T14:57:31;5.25;;;3.30;;
10717;SDS011;13513;42.700;23.124;2023-03-19T15:00:04;5.67;;;3.05;;
10717;SDS011;13513;42.700;23.124;2023-03-19T15:02:40;9.30;;;4.72;;
10717;SDS011;13513;42.700;23.124;2023-03-19T15:07:57;8.53;;;4.10;;
10717;SDS011;13513;42.700;23.124;2023-03-19T15:10:42;7.58;;;4.42;;
10717;SDS011;13513;42.700;23.124;2023-03-19T15:18:39;10.60;;;5.12;;
10717;SDS011;13513;42.700;23.124;2023-03-19T15:21:10;4.85;;;3.10;;
10717;SDS011;13513;42.700;23.124;2023-03-19T15:23:43;4.47;;;3.00;;
10717;SDS011;13513;42.700;23.124;2023-03-19T15:26:14;4.30;;;2.85;;
10717;SDS011;13513;42.700;23.124;2023-03-19T15:28:47;6.45;;;3.42;;
10717;SDS011;13513;42.700;23.124;2023-03-19T15:31:20;5.17;;;3.20;;
10717;SDS011;13513;42.700;23.124;2023-03-19T15:33:51;5.62;;;3.52;;
10717;SDS011;13513;42.700;23.124;2023-03-19T15:39:02;5.15;;;3.30;;
10717;SDS011;13513;42.700;23.124;2023-03-19T15:41:36;6.22;;;3.37;;
10717;SDS011;13513;42.700;23.124;2023-03-19T15:44:08;6.70;;;3.20;;
10717;SDS011;13513;42.700;23.124;2023-03-19T15:46:39;4.25;;;3.20;;
10717;SDS011;13513;42.700;23.124;2023-03-19T15:49:28;4.75;;;3.70;;
10717;SDS011;13513;42.700;23.124;2023-03-19T15:51:59;7.87;;;3.58;;
10717;SDS011;13513;42.700;23.124;2023-03-19T15:54:30;5.78;;;3.30;;
10717;SDS011;13513;42.700;23.124;2023-03-19T15:57:02;6.33;;;3.55;;
10717;SDS011;13513;42.700;23.124;2023-03-19T15:59:35;6.35;;;3.30;;
10717;SDS011;13513;42.700;23.124;2023-03-19T16:02:13;6.83;;;3.50;;
10717;SDS011;13513;42.700;23.124;2023-03-19T16:04:45;4.85;;;3.20;;
10717;SDS011;13513;42.700;23.124;2023-03-19T16:07:26;6.25;;;3.72;;
10717;SDS011;13513;42.700;23.124;2023-03-19T16:18:49;22.95;;;11.33;;
10717;SDS011;13513;42.700;23.124;2023-03-19T16:21:23;22.45;;;11.20;;
10717;SDS011;13513;42.700;23.124;2023-03-19T16:24:10;16.55;;;10.55;;
10717;SDS011;13513;42.700;23.124;2023-03-19T16:26:35;13.83;;;9.30;;
10717;SDS011;13513;42.700;23.124;2023-03-19T16:29:16;19.67;;;10.95;;
10717;SDS011;13513;42.700;23.124;2023-03-19T16:31:59;21.35;;;11.33;;
10717;SDS011;13513;42.700;23.124;2023-03-19T16:34:40;13.15;;;7.22;;
10717;SDS011;13513;42.700;23.124;2023-03-19T16:37:48;12.35;;;6.28;;
10717;SDS011;13513;42.700;23.124;2023-03-19T16:39:56;12.67;;;7.20;;
10717;SDS011;13513;42.700;23.124;2023-03-19T16:47:51;18.37;;;8.25;;
10717;SDS011;13513;42.700;23.124;2023-03-19T16:50:32;11.60;;;6.85;;